createdAt,value
2018-04-24T00:01:02.640Z,3.10
2018-04-24T00:03:31.894Z,3.60
2018-04-24T00:06:01.160Z,3.50
2018-04-24T00:08:34.405Z,3.47
2018-04-24T00:11:03.682Z,3.50
2018-04-24T00:13:33.705Z,3.20
2018-04-24T00:16:02.965Z,3.20
2018-04-24T00:18:32.220Z,3.70
2018-04-24T00:21:01.484Z,3.30
2018-04-24T00:23:31.529Z,2.97
2018-04-24T00:26:01.577Z,4.00
2018-04-24T00:28:30.830Z,3.63
2018-04-24T00:31:00.695Z,3.60
2018-04-24T00:33:29.954Z,3.63
2018-04-24T00:35:59.263Z,3.43
2018-04-24T00:38:28.540Z,2.90
2018-04-24T00:40:58.602Z,3.93
2018-04-24T00:43:27.869Z,2.83
2018-04-24T00:45:57.244Z,3.60
2018-04-24T00:48:27.189Z,2.90
2018-04-24T00:50:56.749Z,3.30
2018-04-24T00:53:44.181Z,3.40
2018-04-24T00:56:14.404Z,3.57
2018-04-24T00:58:44.565Z,2.90
2018-04-24T01:01:13.840Z,3.77
2018-04-24T01:03:43.129Z,3.40
2018-04-24T01:06:13.267Z,3.73
2018-04-24T01:08:43.304Z,3.00
2018-04-24T01:11:12.599Z,3.77
2018-04-24T01:13:41.895Z,3.10
2018-04-24T01:16:11.305Z,2.90
2018-04-24T01:18:40.574Z,3.47
2018-04-24T01:21:09.842Z,2.73
2018-04-24T01:23:39.112Z,3.20
2018-04-24T01:26:08.378Z,2.90
2018-04-24T01:28:37.633Z,3.47
2018-04-24T01:31:07.779Z,4.20
2018-04-24T01:33:37.123Z,3.50
2018-04-24T01:36:07.124Z,3.07
2018-04-24T01:38:37.261Z,3.23
2018-04-24T01:41:07.292Z,3.80
2018-04-24T01:43:36.656Z,3.07
2018-04-24T01:46:06.695Z,3.00
2018-04-24T01:48:36.822Z,2.70
2018-04-24T01:51:06.118Z,3.53
2018-04-24T01:53:36.145Z,3.63
2018-04-24T01:56:05.406Z,3.20
2018-04-24T01:58:34.709Z,4.63
2018-04-24T02:01:04.006Z,3.37
2018-04-24T02:03:33.257Z,2.93
2018-04-24T02:06:02.647Z,3.57
2018-04-24T02:08:31.909Z,2.70
2018-04-24T02:11:01.190Z,2.73
2018-04-24T02:13:30.453Z,3.80
2018-04-24T02:15:59.718Z,3.20
2018-04-24T02:18:29.761Z,3.40
2018-04-24T02:20:59.023Z,3.13
2018-04-24T02:23:28.292Z,3.70
2018-04-24T02:25:57.568Z,3.47
2018-04-24T02:28:27.734Z,3.47
2018-04-24T02:30:56.985Z,2.90
2018-04-24T02:33:26.294Z,3.90
2018-04-24T02:35:56.316Z,4.10
2018-04-24T02:38:25.681Z,4.20
2018-04-24T02:40:56.085Z,3.30
2018-04-24T02:43:25.426Z,4.10
2018-04-24T02:45:54.740Z,3.13
2018-04-24T02:48:24.000Z,4.80
2018-04-24T02:50:54.052Z,3.50
2018-04-24T02:53:24.204Z,4.03
2018-04-24T02:55:53.511Z,3.37
2018-04-24T02:58:22.777Z,2.93
2018-04-24T03:00:52.109Z,3.20
2018-04-24T03:03:21.556Z,3.50
2018-04-24T03:05:51.708Z,3.50
2018-04-24T03:08:21.011Z,3.43
2018-04-24T03:10:50.673Z,3.40
2018-04-24T03:13:19.951Z,4.27
2018-04-24T03:15:49.374Z,3.50
2018-04-24T03:18:18.699Z,3.90
2018-04-24T03:20:48.010Z,3.70
2018-04-24T03:23:18.120Z,3.30
2018-04-24T03:25:47.372Z,2.83
2018-04-24T03:28:16.642Z,2.90
2018-04-24T03:30:45.902Z,3.33
2018-04-24T03:33:15.988Z,3.50
2018-04-24T03:35:45.254Z,3.60
2018-04-24T03:38:14.575Z,3.50
2018-04-24T03:40:44.723Z,2.77
2018-04-24T03:43:13.989Z,3.67
2018-04-24T03:45:43.305Z,4.33
2018-04-24T03:48:13.165Z,3.17
2018-04-24T03:50:43.192Z,3.30
2018-04-24T03:53:12.588Z,3.20
2018-04-24T03:55:41.848Z,3.30
2018-04-24T03:58:11.831Z,2.80
2018-04-24T04:00:41.077Z,2.80
2018-04-24T04:03:10.448Z,3.00
2018-04-24T04:05:39.749Z,3.23
2018-04-24T04:08:09.114Z,3.60
2018-04-24T04:10:38.393Z,2.90
2018-04-24T04:13:08.507Z,2.93
2018-04-24T04:15:37.993Z,2.60
2018-04-24T04:18:25.111Z,3.27
2018-04-24T04:21:12.356Z,2.90
2018-04-24T04:24:00.574Z,3.37
2018-04-24T04:26:29.982Z,2.80
2018-04-24T04:28:59.412Z,2.87
2018-04-24T04:31:28.701Z,3.70
2018-04-24T04:33:58.736Z,3.97
2018-04-24T04:36:28.867Z,3.73
2018-04-24T04:38:58.097Z,3.13
2018-04-24T04:41:27.638Z,4.07
2018-04-24T04:43:56.853Z,3.27
2018-04-24T04:46:26.893Z,3.60
2018-04-24T04:48:56.170Z,3.57
2018-04-24T04:51:26.206Z,3.73
2018-04-24T04:53:55.709Z,3.73
2018-04-24T04:56:25.930Z,3.80
2018-04-24T04:58:56.157Z,3.67
2018-04-24T05:01:25.475Z,4.67
2018-04-24T05:03:54.756Z,3.83
2018-04-24T05:06:24.806Z,5.27
2018-04-24T05:08:54.243Z,3.73
2018-04-24T05:11:24.313Z,3.00
2018-04-24T05:13:53.593Z,3.60
2018-04-24T05:16:23.618Z,4.13
2018-04-24T05:18:52.925Z,3.50
2018-04-24T05:21:22.213Z,4.10
2018-04-24T05:23:51.500Z,3.20
2018-04-24T05:26:21.771Z,3.00
2018-04-24T05:28:51.023Z,2.67
2018-04-24T05:31:21.148Z,2.73
2018-04-24T05:33:50.458Z,3.00
2018-04-24T05:36:20.477Z,3.30
2018-04-24T05:38:50.500Z,2.90
2018-04-24T05:41:19.895Z,4.17
2018-04-24T05:43:49.905Z,2.77
2018-04-24T05:46:19.210Z,2.90
2018-04-24T05:48:48.495Z,3.10
2018-04-24T05:51:18.622Z,3.27
2018-04-24T05:53:48.851Z,2.70
2018-04-24T05:56:18.148Z,2.73
2018-04-24T05:58:48.165Z,2.00
2018-04-24T06:01:17.496Z,2.20
2018-04-24T06:03:46.772Z,2.50
2018-04-24T06:06:16.699Z,2.50
2018-04-24T06:08:45.990Z,2.27
2018-04-24T06:11:16.294Z,2.17
2018-04-24T06:13:46.357Z,2.53
2018-04-24T06:16:16.524Z,2.33
2018-04-24T06:18:46.576Z,2.77
2018-04-24T06:21:15.939Z,3.00
2018-04-24T06:23:45.199Z,2.67
2018-04-24T06:26:14.449Z,2.70
2018-04-24T06:28:43.874Z,2.30
2018-04-24T06:31:13.065Z,2.77
2018-04-24T06:33:43.102Z,2.57
2018-04-24T06:36:12.394Z,2.30
2018-04-24T06:38:41.785Z,2.63
2018-04-24T06:41:11.796Z,2.40
2018-04-24T06:43:41.835Z,2.60
2018-04-24T06:46:11.128Z,2.53
2018-04-24T06:48:40.410Z,3.63
2018-04-24T06:51:09.781Z,2.30
2018-04-24T06:53:39.077Z,2.83
2018-04-24T06:56:08.347Z,2.93
2018-04-24T06:58:37.783Z,2.70
2018-04-24T07:01:07.044Z,3.13
2018-04-24T07:03:36.308Z,4.30
2018-04-24T07:06:06.350Z,3.63
2018-04-24T07:08:35.643Z,2.77
2018-04-24T07:11:05.273Z,2.70
2018-04-24T07:13:35.285Z,3.30
2018-04-24T07:16:04.657Z,3.23
2018-04-24T07:18:34.734Z,3.13
2018-04-24T07:21:04.848Z,3.20
2018-04-24T07:23:34.200Z,2.50
2018-04-24T07:26:04.392Z,2.67
2018-04-24T07:28:33.788Z,2.67
2018-04-24T07:31:03.188Z,2.80
2018-04-24T07:33:32.715Z,2.83
2018-04-24T07:36:02.263Z,3.70
2018-04-24T07:38:31.552Z,2.50
2018-04-24T07:41:00.888Z,3.00
2018-04-24T07:43:30.911Z,2.90
2018-04-24T07:46:00.258Z,2.87
2018-04-24T07:48:29.445Z,2.70
2018-04-24T07:50:58.733Z,2.80
2018-04-24T07:53:27.996Z,2.40
2018-04-24T07:55:57.270Z,3.10
2018-04-24T07:58:26.603Z,2.50
2018-04-24T08:00:56.391Z,3.07
2018-04-24T08:03:25.679Z,2.10
2018-04-24T08:05:55.910Z,2.50
2018-04-24T08:08:25.919Z,2.43
2018-04-24T08:10:55.201Z,2.60
2018-04-24T08:13:25.245Z,2.90
2018-04-24T08:15:54.638Z,2.63
2018-04-24T08:18:23.918Z,2.57
2018-04-24T08:20:53.957Z,2.40
2018-04-24T08:23:23.304Z,2.70
2018-04-24T08:25:52.564Z,2.50
2018-04-24T08:28:21.840Z,2.60
2018-04-24T08:30:51.986Z,2.40
2018-04-24T08:33:21.289Z,3.00
2018-04-24T08:35:50.548Z,2.40
2018-04-24T08:38:19.830Z,2.20
2018-04-24T08:40:49.175Z,2.10
2018-04-24T08:43:19.390Z,2.97
2018-04-24T08:45:49.419Z,2.33
2018-04-24T08:48:18.851Z,2.50
2018-04-24T08:50:48.958Z,2.40
2018-04-24T08:53:18.220Z,2.90
2018-04-24T08:55:48.320Z,2.03
2018-04-24T08:58:17.570Z,3.23
2018-04-24T09:00:46.980Z,2.90
2018-04-24T09:03:16.272Z,2.37
2018-04-24T09:05:45.573Z,2.30
2018-04-24T09:08:14.829Z,2.53
2018-04-24T09:10:44.907Z,2.37
2018-04-24T09:13:14.177Z,2.43
2018-04-24T09:15:44.186Z,2.43
2018-04-24T09:18:13.475Z,2.07
2018-04-24T09:20:43.524Z,2.40
2018-04-24T09:23:12.778Z,2.73
2018-04-24T09:25:42.093Z,2.03
2018-04-24T09:28:12.116Z,2.00
2018-04-24T09:30:43.778Z,2.00
2018-04-24T09:33:13.105Z,1.70
2018-04-24T09:35:42.412Z,1.90
2018-04-24T09:38:11.780Z,1.20
2018-04-24T09:40:41.824Z,1.20
2018-04-24T09:43:11.159Z,1.00
2018-04-24T09:45:40.434Z,1.07
2018-04-24T09:48:09.676Z,0.90
2018-04-24T09:50:38.946Z,1.10
2018-04-24T09:53:08.399Z,1.50
2018-04-24T09:55:38.433Z,1.40
2018-04-24T09:58:07.695Z,1.30
2018-04-24T10:00:37.002Z,1.00
2018-04-24T10:03:06.279Z,1.80
2018-04-24T10:05:35.670Z,1.17
2018-04-24T10:08:04.928Z,1.40
2018-04-24T10:10:34.975Z,1.40
2018-04-24T10:13:04.269Z,2.20
2018-04-24T10:15:33.515Z,1.30
2018-04-24T10:18:02.885Z,1.30
2018-04-24T10:20:32.163Z,1.27
2018-04-24T10:23:01.463Z,1.30
2018-04-24T10:25:31.533Z,1.57
2018-04-24T10:28:00.800Z,1.67
2018-04-24T10:30:30.232Z,1.63
2018-04-24T10:32:59.624Z,0.90
2018-04-24T10:35:28.911Z,1.20
2018-04-24T10:37:58.177Z,1.23
2018-04-24T10:40:27.440Z,1.40
2018-04-24T10:42:56.711Z,1.47
2018-04-24T10:45:26.076Z,1.97
2018-04-24T10:47:55.908Z,1.23
2018-04-24T10:50:25.132Z,1.53
2018-04-24T10:52:54.546Z,1.47
2018-04-24T10:55:23.816Z,1.33
2018-04-24T10:57:53.149Z,1.53
2018-04-24T11:00:22.418Z,1.20
2018-04-24T11:02:51.678Z,1.40
2018-04-24T11:05:21.066Z,1.43
2018-04-24T11:07:50.358Z,1.23
2018-04-24T11:10:19.726Z,0.97
2018-04-24T11:12:49.036Z,1.10
2018-04-24T11:15:18.315Z,1.10
2018-04-24T11:17:47.597Z,1.20
2018-04-24T11:20:16.909Z,1.13
2018-04-24T11:22:46.189Z,0.90
2018-04-24T11:25:16.244Z,1.57
2018-04-24T11:27:45.489Z,0.93
2018-04-24T11:30:15.723Z,1.07
2018-04-24T11:32:45.875Z,1.20
2018-04-24T11:35:15.168Z,1.17
2018-04-24T11:37:45.248Z,1.37
2018-04-24T11:40:15.325Z,0.90
2018-04-24T11:42:44.670Z,1.20
2018-04-24T11:45:13.979Z,1.17
2018-04-24T11:47:43.254Z,1.00
2018-04-24T11:50:12.512Z,1.33
2018-04-24T11:52:41.795Z,1.00
2018-04-24T11:55:11.401Z,1.10
2018-04-24T11:57:41.584Z,1.30
2018-04-24T12:00:10.879Z,1.20
2018-04-24T12:02:40.333Z,1.43
2018-04-24T12:05:09.569Z,1.27
2018-04-24T12:07:38.905Z,1.30
2018-04-24T12:10:08.345Z,1.00
2018-04-24T12:12:37.603Z,1.70
2018-04-24T12:15:06.879Z,1.27
2018-04-24T12:17:36.179Z,1.20
2018-04-24T12:20:05.517Z,0.90
2018-04-24T12:22:35.628Z,1.10
2018-04-24T12:25:05.667Z,1.10
2018-04-24T12:27:35.692Z,1.20
2018-04-24T12:30:05.854Z,0.90
2018-04-24T12:32:35.124Z,1.27
2018-04-24T12:35:04.396Z,1.10
2018-04-24T12:37:34.456Z,1.73
2018-04-24T12:40:03.729Z,0.97
2018-04-24T12:42:32.988Z,0.87
2018-04-24T12:45:03.909Z,1.10
2018-04-24T12:47:33.178Z,1.30
2018-04-24T12:50:02.441Z,1.23
2018-04-24T12:52:31.697Z,1.13
2018-04-24T12:55:01.018Z,0.90
2018-04-24T12:57:30.273Z,1.40
2018-04-24T12:59:59.645Z,0.80
2018-04-24T13:02:29.725Z,0.97
2018-04-24T13:04:59.019Z,1.20
2018-04-24T13:07:28.359Z,1.70
2018-04-24T13:09:57.650Z,1.17
2018-04-24T13:12:26.926Z,1.17
2018-04-24T13:14:56.194Z,1.50
2018-04-24T13:17:25.449Z,1.50
2018-04-24T13:19:54.733Z,1.60
2018-04-24T13:22:23.999Z,0.90
2018-04-24T13:24:53.285Z,1.00
2018-04-24T13:27:22.585Z,1.20
2018-04-24T13:29:51.843Z,1.20
2018-04-24T13:32:21.155Z,1.00
2018-04-24T13:34:50.433Z,1.50
2018-04-24T13:37:19.741Z,2.00
2018-04-24T13:39:49.000Z,1.30
2018-04-24T13:42:18.270Z,1.20
2018-04-24T13:44:47.517Z,1.43
2018-04-24T13:47:16.808Z,1.07
2018-04-24T13:49:46.057Z,1.30
2018-04-24T13:52:16.145Z,1.03
2018-04-24T13:54:45.413Z,1.30
2018-04-24T13:57:14.703Z,1.10
2018-04-24T13:59:44.723Z,1.00
2018-04-24T14:02:13.990Z,1.60
2018-04-24T14:04:43.261Z,1.23
2018-04-24T14:07:12.522Z,1.43
2018-04-24T14:09:41.796Z,1.50
2018-04-24T14:12:11.115Z,1.30
2018-04-24T14:14:40.397Z,1.20
2018-04-24T14:17:09.641Z,1.73
2018-04-24T14:19:38.925Z,1.40
2018-04-24T14:22:08.190Z,1.33
2018-04-24T14:24:37.456Z,1.57
2018-04-24T14:27:06.738Z,1.30
2018-04-24T14:29:36.214Z,1.33
2018-04-24T14:32:06.234Z,1.30
2018-04-24T14:34:35.542Z,1.80
2018-04-24T14:37:05.743Z,1.23
2018-04-24T14:39:34.958Z,1.40
2018-04-24T14:42:04.301Z,1.40
2018-04-24T14:44:33.563Z,1.20
2018-04-24T14:47:02.875Z,1.17
2018-04-24T14:49:32.897Z,1.33
2018-04-24T14:52:02.184Z,1.37
2018-04-24T14:54:32.193Z,1.37
2018-04-24T14:57:01.514Z,1.77
2018-04-24T14:59:30.961Z,1.30
2018-04-24T15:02:00.227Z,1.37
2018-04-24T15:04:29.502Z,1.37
2018-04-24T15:06:59.319Z,1.50
2018-04-24T15:09:28.623Z,1.40
2018-04-24T15:11:57.897Z,1.53
2018-04-24T15:14:27.969Z,1.27
2018-04-24T15:16:57.288Z,1.63
2018-04-24T15:19:26.548Z,1.20
2018-04-24T15:21:55.925Z,3.73
2018-04-24T15:24:25.988Z,1.40
2018-04-24T15:26:55.273Z,1.40
2018-04-24T15:29:24.546Z,1.40
2018-04-24T15:31:53.864Z,1.67
2018-04-24T15:34:23.414Z,1.70
2018-04-24T15:36:52.683Z,1.20
2018-04-24T15:39:21.970Z,2.20
2018-04-24T15:41:51.247Z,1.57
2018-04-24T15:44:21.293Z,1.50
2018-04-24T15:46:50.643Z,1.40
2018-04-24T15:49:19.985Z,1.67
2018-04-24T15:51:49.195Z,1.83
2018-04-24T15:54:18.449Z,1.30
2018-04-24T15:56:47.748Z,1.47
2018-04-24T15:59:17.782Z,1.60
2018-04-24T16:01:47.843Z,1.63
2018-04-24T16:04:17.206Z,1.33
2018-04-24T16:06:47.302Z,2.33
2018-04-24T16:09:16.573Z,1.60
2018-04-24T16:11:45.907Z,1.57
2018-04-24T16:14:15.174Z,1.80
2018-04-24T16:16:44.499Z,1.93
2018-04-24T16:19:14.627Z,2.43
2018-04-24T16:21:43.808Z,2.00
2018-04-24T16:24:14.684Z,1.87
2018-04-24T16:26:43.995Z,1.47
2018-04-24T16:29:13.310Z,1.27
2018-04-24T16:31:43.322Z,1.50
2018-04-24T16:34:12.607Z,1.90
2018-04-24T16:36:42.029Z,1.80
2018-04-24T16:39:11.361Z,1.23
2018-04-24T16:41:40.624Z,1.80
2018-04-24T16:44:09.928Z,1.67
2018-04-24T16:46:39.956Z,1.73
2018-04-24T16:49:09.684Z,1.63
2018-04-24T16:51:40.522Z,1.80
2018-04-24T16:54:09.816Z,1.70
2018-04-24T16:56:39.069Z,1.80
2018-04-24T16:59:08.349Z,2.60
2018-04-24T17:01:38.393Z,1.77
2018-04-24T17:04:08.498Z,2.10
2018-04-24T17:06:38.563Z,4.27
2018-04-24T17:09:07.834Z,3.40
2018-04-24T17:11:37.214Z,1.40
2018-04-24T17:14:07.228Z,1.30
2018-04-24T17:16:37.300Z,1.70
2018-04-24T17:19:06.614Z,1.47
2018-04-24T17:21:36.683Z,1.80
2018-04-24T17:24:06.033Z,1.90
2018-04-24T17:26:35.323Z,1.30
2018-04-24T17:29:04.663Z,1.70
2018-04-24T17:31:33.952Z,1.90
2018-04-24T17:34:03.244Z,1.80
2018-04-24T17:36:32.574Z,1.83
2018-04-24T17:39:02.679Z,1.63
2018-04-24T17:41:32.027Z,1.60
2018-04-24T17:44:01.521Z,1.10
2018-04-24T17:46:31.579Z,2.10
2018-04-24T17:49:00.937Z,1.70
2018-04-24T17:51:30.315Z,2.10
2018-04-24T17:54:01.140Z,1.33
2018-04-24T17:56:32.010Z,2.27
2018-04-24T17:59:01.307Z,1.40
2018-04-24T18:01:31.345Z,1.90
2018-04-24T18:04:00.602Z,1.60
2018-04-24T18:06:29.901Z,1.93
2018-04-24T18:09:00.733Z,1.63
2018-04-24T18:11:30.043Z,1.83
2018-04-24T18:13:59.308Z,1.80
2018-04-24T18:16:28.739Z,1.73
2018-04-24T18:18:58.055Z,2.57
2018-04-24T18:21:27.348Z,3.20
2018-04-24T18:23:58.205Z,1.80
2018-04-24T18:26:28.321Z,1.53
2018-04-24T18:28:57.893Z,1.70
2018-04-24T18:31:27.211Z,1.40
2018-04-24T18:33:57.298Z,2.03
2018-04-24T18:36:26.567Z,1.73
2018-04-24T18:38:55.841Z,1.70
2018-04-24T18:41:25.931Z,1.80
2018-04-24T18:43:56.241Z,2.07
2018-04-24T18:46:25.708Z,1.90
2018-04-24T18:48:55.072Z,2.00
2018-04-24T18:51:24.535Z,1.97
2018-04-24T18:53:53.839Z,2.00
2018-04-24T18:56:23.259Z,1.27
2018-04-24T18:58:52.908Z,1.57
2018-04-24T19:01:23.299Z,2.00
2018-04-24T19:03:52.594Z,2.37
2018-04-24T19:06:22.203Z,1.80
2018-04-24T19:08:53.089Z,2.00
2018-04-24T19:11:22.651Z,2.17
2018-04-24T19:13:51.986Z,1.50
2018-04-24T19:16:21.703Z,1.90
2018-04-24T19:21:56.769Z,1.70
2018-04-24T19:24:32.454Z,1.70
2018-04-24T19:27:02.823Z,1.60
2018-04-24T19:29:32.942Z,2.10
2018-04-24T19:32:08.143Z,1.70
2018-04-24T19:34:38.279Z,1.50
2018-04-24T19:37:07.575Z,1.90
2018-04-24T19:39:42.558Z,2.00
2018-04-24T19:42:11.869Z,1.27
2018-04-24T19:44:41.149Z,2.47
2018-04-24T19:47:10.427Z,1.97
2018-04-24T19:52:43.991Z,1.73
2018-04-24T19:55:18.784Z,2.07
2018-04-24T19:57:48.067Z,2.03
2018-04-24T20:00:17.374Z,1.70
2018-04-24T20:02:48.162Z,1.90
2018-04-24T20:05:21.167Z,1.90
2018-04-24T20:07:50.456Z,1.90
2018-04-24T20:10:19.759Z,2.00
2018-04-24T20:12:49.160Z,1.70
2018-04-24T20:15:18.435Z,1.50
2018-04-24T20:17:47.765Z,1.57
2018-04-24T20:20:17.230Z,1.93
2018-04-24T20:22:47.897Z,2.47
2018-04-24T20:25:17.480Z,1.80
2018-04-24T20:27:46.836Z,1.60
2018-04-24T20:30:16.242Z,1.73
2018-04-24T20:32:46.023Z,2.03
2018-04-24T20:35:15.373Z,2.13
2018-04-24T20:37:44.678Z,1.90
2018-04-24T20:40:14.746Z,2.30
2018-04-24T20:42:44.285Z,1.67
2018-04-24T20:45:13.715Z,2.00
2018-04-24T20:47:44.023Z,1.70
2018-04-24T20:50:13.318Z,1.30
2018-04-24T20:52:46.627Z,2.00
2018-04-24T20:55:16.137Z,1.80
2018-04-24T20:57:46.225Z,1.33
2018-04-24T21:00:15.969Z,1.70
2018-04-24T21:02:45.673Z,2.40
2018-04-24T21:05:15.807Z,1.53
2018-04-24T21:07:47.535Z,1.83
2018-04-24T21:10:16.872Z,2.37
2018-04-24T21:12:46.918Z,1.70
2018-04-24T21:15:16.367Z,2.30
2018-04-24T21:17:45.670Z,1.80
2018-04-24T21:20:15.752Z,2.40
2018-04-24T21:22:45.021Z,1.97
2018-04-24T21:25:14.291Z,2.00
2018-04-24T21:27:44.311Z,2.07
2018-04-24T21:30:14.341Z,2.10
2018-04-24T21:32:43.647Z,2.20
2018-04-24T21:35:12.967Z,2.20
2018-04-24T21:37:42.214Z,2.40
2018-04-24T21:40:12.321Z,2.27
2018-04-24T21:42:41.595Z,1.83
2018-04-24T21:45:11.239Z,2.10
2018-04-24T21:47:40.659Z,2.10
2018-04-24T21:50:10.732Z,1.90
2018-04-24T21:52:40.119Z,3.27
2018-04-24T21:55:09.519Z,2.40
2018-04-24T21:57:39.824Z,2.20
2018-04-24T22:00:09.231Z,1.73
2018-04-24T22:02:39.250Z,2.20
2018-04-24T22:05:08.759Z,2.90
2018-04-24T22:07:38.108Z,2.67
2018-04-24T22:10:07.411Z,2.40
2018-04-24T22:12:36.713Z,2.23
2018-04-24T22:15:06.156Z,2.10
2018-04-24T22:17:36.164Z,2.37
2018-04-24T22:20:05.483Z,2.00
2018-04-24T22:22:34.876Z,1.93
2018-04-24T22:25:04.147Z,2.60
2018-04-24T22:27:33.447Z,2.53
2018-04-24T22:30:03.546Z,3.03
2018-04-24T22:32:32.803Z,2.03
2018-04-24T22:35:06.001Z,2.20
2018-04-24T22:37:36.102Z,2.60
2018-04-24T22:40:05.392Z,2.90
2018-04-24T22:42:34.667Z,2.27
2018-04-24T22:45:05.487Z,2.27
2018-04-24T22:47:34.844Z,2.20
2018-04-24T22:50:04.111Z,3.40
2018-04-24T22:52:33.446Z,3.33
2018-04-24T22:55:02.734Z,2.50
2018-04-24T22:57:32.039Z,2.57
2018-04-24T23:00:01.295Z,2.73
2018-04-24T23:02:30.564Z,3.00
2018-04-24T23:04:59.865Z,2.43
2018-04-24T23:07:29.956Z,2.50
2018-04-24T23:09:58.481Z,2.63
2018-04-24T23:12:45.272Z,2.23
2018-04-24T23:15:38.381Z,2.43
2018-04-24T23:18:31.885Z,2.47
2018-04-24T23:21:06.108Z,2.90
2018-04-24T23:23:35.394Z,2.53
2018-04-24T23:26:04.662Z,2.67
2018-04-24T23:28:33.989Z,2.70
2018-04-24T23:31:04.013Z,2.40
2018-04-24T23:33:33.433Z,2.13
2018-04-24T23:39:11.443Z,3.03
2018-04-24T23:41:41.468Z,3.00
2018-04-24T23:48:04.098Z,2.77
2018-04-24T23:50:33.350Z,2.83
2018-04-24T23:53:06.829Z,3.53
2018-04-24T23:55:36.877Z,2.43
2018-04-24T23:58:06.164Z,3.03
